sensor_id;sensor_type;location;lat;lon;timestamp;P1;durP1;ratioP1;P2;durP2;ratioP2
25649;SDS011;13505;45.196;5.696;2023-07-20T04:32:13;4.45;;;2.85;;
25649;SDS011;13505;45.196;5.696;2023-07-20T04:37:04;4.18;;;2.40;;
25649;SDS011;13505;45.196;5.696;2023-07-20T04:41:54;5.22;;;2.90;;
25649;SDS011;13505;45.196;5.696;2023-07-20T04:46:44;4.00;;;2.87;;
25649;SDS011;13505;45.196;5.696;2023-07-20T04:51:35;5.90;;;2.80;;
25649;SDS011;13505;45.196;5.696;2023-07-20T04:56:25;7.67;;;2.77;;
25649;SDS011;13505;45.196;5.696;2023-07-20T05:01:15;10.43;;;2.88;;
25649;SDS011;13505;45.196;5.696;2023-07-20T05:06:06;6.43;;;2.53;;
25649;SDS011;13505;45.196;5.696;2023-07-20T05:10:56;5.38;;;2.75;;
25649;SDS011;13505;45.196;5.696;2023-07-20T05:15:46;11.23;;;3.40;;
25649;SDS011;13505;45.196;5.696;2023-07-20T05:20:37;12.07;;;2.67;;
25649;SDS011;13505;45.196;5.696;2023-07-20T05:25:27;8.17;;;3.07;;
25649;SDS011;13505;45.196;5.696;2023-07-20T05:30:17;6.22;;;2.97;;
25649;SDS011;13505;45.196;5.696;2023-07-20T05:35:08;5.68;;;2.53;;
25649;SDS011;13505;45.196;5.696;2023-07-20T05:40:01;5.93;;;2.83;;
25649;SDS011;13505;45.196;5.696;2023-07-20T05:44:51;6.37;;;2.73;;
25649;SDS011;13505;45.196;5.696;2023-07-20T05:49:42;7.43;;;3.08;;
25649;SDS011;13505;45.196;5.696;2023-07-20T05:54:33;5.47;;;2.87;;
25649;SDS011;13505;45.196;5.696;2023-07-20T05:59:24;6.60;;;2.73;;
25649;SDS011;13505;45.196;5.696;2023-07-20T06:04:19;8.20;;;2.83;;
25649;SDS011;13505;45.196;5.696;2023-07-20T06:09:09;13.30;;;2.78;;
25649;SDS011;13505;45.196;5.696;2023-07-20T06:14:02;10.18;;;3.20;;
25649;SDS011;13505;45.196;5.696;2023-07-20T06:18:52;5.03;;;2.60;;
25649;SDS011;13505;45.196;5.696;2023-07-20T06:23:42;5.22;;;2.90;;
25649;SDS011;13505;45.196;5.696;2023-07-20T06:28:33;5.60;;;2.90;;
25649;SDS011;13505;45.196;5.696;2023-07-20T06:33:23;16.50;;;3.63;;
25649;SDS011;13505;45.196;5.696;2023-07-20T06:38:14;8.98;;;3.30;;
25649;SDS011;13505;45.196;5.696;2023-07-20T06:43:04;9.20;;;3.28;;
25649;SDS011;13505;45.196;5.696;2023-07-20T06:47:54;6.50;;;3.40;;
25649;SDS011;13505;45.196;5.696;2023-07-20T06:52:45;6.32;;;2.83;;
25649;SDS011;13505;45.196;5.696;2023-07-20T06:57:37;10.82;;;3.03;;
25649;SDS011;13505;45.196;5.696;2023-07-20T07:02:28;7.45;;;2.60;;
25649;SDS011;13505;45.196;5.696;2023-07-20T07:07:18;9.10;;;2.72;;
25649;SDS011;13505;45.196;5.696;2023-07-20T07:12:08;7.93;;;2.95;;
25649;SDS011;13505;45.196;5.696;2023-07-20T07:16:59;8.75;;;3.30;;
25649;SDS011;13505;45.196;5.696;2023-07-20T07:21:49;4.82;;;2.85;;
25649;SDS011;13505;45.196;5.696;2023-07-20T07:26:40;13.32;;;3.00;;
25649;SDS011;13505;45.196;5.696;2023-07-20T07:31:33;7.13;;;3.20;;
25649;SDS011;13505;45.196;5.696;2023-07-20T07:36:25;8.13;;;3.35;;
25649;SDS011;13505;45.196;5.696;2023-07-20T07:41:16;5.63;;;2.93;;
25649;SDS011;13505;45.196;5.696;2023-07-20T07:46:06;7.30;;;3.00;;
25649;SDS011;13505;45.196;5.696;2023-07-20T07:50:56;6.70;;;3.05;;
25649;SDS011;13505;45.196;5.696;2023-07-20T07:55:47;10.07;;;2.85;;
25649;SDS011;13505;45.196;5.696;2023-07-20T08:00:38;3.95;;;2.47;;
25649;SDS011;13505;45.196;5.696;2023-07-20T08:05:29;5.88;;;2.70;;
25649;SDS011;13505;45.196;5.696;2023-07-20T08:10:19;6.50;;;2.42;;
25649;SDS011;13505;45.196;5.696;2023-07-20T08:15:10;8.13;;;2.63;;
25649;SDS011;13505;45.196;5.696;2023-07-20T08:20:02;4.63;;;2.90;;
25649;SDS011;13505;45.196;5.696;2023-07-20T08:24:53;10.45;;;2.67;;
25649;SDS011;13505;45.196;5.696;2023-07-20T08:29:43;4.70;;;2.10;;
25649;SDS011;13505;45.196;5.696;2023-07-20T08:34:34;8.68;;;2.95;;
25649;SDS011;13505;45.196;5.696;2023-07-20T08:39:24;8.77;;;2.73;;
25649;SDS011;13505;45.196;5.696;2023-07-20T08:44:15;5.20;;;2.40;;
25649;SDS011;13505;45.196;5.696;2023-07-20T08:49:06;15.32;;;3.00;;
25649;SDS011;13505;45.196;5.696;2023-07-20T08:53:57;6.07;;;2.40;;
25649;SDS011;13505;45.196;5.696;2023-07-20T08:58:48;5.20;;;2.60;;
25649;SDS011;13505;45.196;5.696;2023-07-20T09:03:39;5.38;;;2.60;;
25649;SDS011;13505;45.196;5.696;2023-07-20T09:08:32;6.03;;;2.63;;
25649;SDS011;13505;45.196;5.696;2023-07-20T09:13:24;5.13;;;2.13;;
25649;SDS011;13505;45.196;5.696;2023-07-20T09:18:24;3.22;;;2.58;;
25649;SDS011;13505;45.196;5.696;2023-07-20T09:23:18;5.13;;;2.40;;
25649;SDS011;13505;45.196;5.696;2023-07-20T09:28:08;3.93;;;1.97;;
25649;SDS011;13505;45.196;5.696;2023-07-20T09:32:59;5.77;;;2.10;;
25649;SDS011;13505;45.196;5.696;2023-07-20T09:37:59;4.53;;;2.08;;
25649;SDS011;13505;45.196;5.696;2023-07-20T09:42:50;5.68;;;2.25;;
25649;SDS011;13505;45.196;5.696;2023-07-20T09:47:42;5.75;;;2.35;;
25649;SDS011;13505;45.196;5.696;2023-07-20T09:52:32;4.70;;;2.00;;
25649;SDS011;13505;45.196;5.696;2023-07-20T09:57:24;6.07;;;2.25;;
25649;SDS011;13505;45.196;5.696;2023-07-20T10:02:26;3.30;;;2.13;;
25649;SDS011;13505;45.196;5.696;2023-07-20T10:07:22;8.20;;;2.30;;
25649;SDS011;13505;45.196;5.696;2023-07-20T10:12:17;9.90;;;2.05;;
25649;SDS011;13505;45.196;5.696;2023-07-20T10:17:12;4.63;;;1.92;;
25649;SDS011;13505;45.196;5.696;2023-07-20T10:22:14;4.20;;;1.95;;
25649;SDS011;13505;45.196;5.696;2023-07-20T10:27:07;8.13;;;2.20;;
25649;SDS011;13505;45.196;5.696;2023-07-20T10:31:58;2.90;;;2.13;;
25649;SDS011;13505;45.196;5.696;2023-07-20T10:36:48;4.68;;;2.10;;
25649;SDS011;13505;45.196;5.696;2023-07-20T10:41:42;4.13;;;2.05;;
25649;SDS011;13505;45.196;5.696;2023-07-20T10:51:28;4.90;;;2.15;;
25649;SDS011;13505;45.196;5.696;2023-07-20T10:56:19;3.17;;;2.17;;
25649;SDS011;13505;45.196;5.696;2023-07-20T11:01:14;7.00;;;2.53;;
25649;SDS011;13505;45.196;5.696;2023-07-20T11:16:11;3.50;;;2.13;;
25649;SDS011;13505;45.196;5.696;2023-07-20T11:21:01;5.70;;;2.13;;
25649;SDS011;13505;45.196;5.696;2023-07-20T11:25:52;8.13;;;2.55;;
25649;SDS011;13505;45.196;5.696;2023-07-20T11:30:42;2.53;;;2.13;;
25649;SDS011;13505;45.196;5.696;2023-07-20T11:35:35;5.65;;;2.20;;
25649;SDS011;13505;45.196;5.696;2023-07-20T11:40:26;3.42;;;2.42;;
25649;SDS011;13505;45.196;5.696;2023-07-20T11:45:17;5.90;;;2.40;;
25649;SDS011;13505;45.196;5.696;2023-07-20T11:50:08;5.95;;;2.67;;
25649;SDS011;13505;45.196;5.696;2023-07-20T11:54:59;6.68;;;2.60;;
25649;SDS011;13505;45.196;5.696;2023-07-20T11:59:53;5.45;;;2.40;;
25649;SDS011;13505;45.196;5.696;2023-07-20T12:04:47;6.17;;;2.40;;
25649;SDS011;13505;45.196;5.696;2023-07-20T12:09:38;2.90;;;2.28;;
25649;SDS011;13505;45.196;5.696;2023-07-20T12:14:28;4.27;;;2.23;;
25649;SDS011;13505;45.196;5.696;2023-07-20T12:19:18;3.30;;;2.20;;
25649;SDS011;13505;45.196;5.696;2023-07-20T12:24:10;2.37;;;2.00;;
25649;SDS011;13505;45.196;5.696;2023-07-20T12:29:01;7.57;;;2.30;;
25649;SDS011;13505;45.196;5.696;2023-07-20T12:33:53;3.22;;;2.20;;
25649;SDS011;13505;45.196;5.696;2023-07-20T12:38:47;3.78;;;2.25;;
25649;SDS011;13505;45.196;5.696;2023-07-20T12:43:38;7.30;;;2.58;;
25649;SDS011;13505;45.196;5.696;2023-07-20T12:48:30;7.82;;;2.10;;
25649;SDS011;13505;45.196;5.696;2023-07-20T12:53:20;3.13;;;2.00;;
25649;SDS011;13505;45.196;5.696;2023-07-20T12:58:12;5.07;;;2.35;;
25649;SDS011;13505;45.196;5.696;2023-07-20T13:03:03;7.00;;;2.53;;
25649;SDS011;13505;45.196;5.696;2023-07-20T13:07:54;7.60;;;2.50;;
25649;SDS011;13505;45.196;5.696;2023-07-20T13:12:45;3.10;;;2.30;;
25649;SDS011;13505;45.196;5.696;2023-07-20T13:17:35;7.07;;;2.63;;
25649;SDS011;13505;45.196;5.696;2023-07-20T13:22:28;7.05;;;2.70;;
25649;SDS011;13505;45.196;5.696;2023-07-20T13:27:18;6.33;;;2.50;;
25649;SDS011;13505;45.196;5.696;2023-07-20T13:32:09;7.07;;;2.50;;
25649;SDS011;13505;45.196;5.696;2023-07-20T13:37:00;4.13;;;2.45;;
25649;SDS011;13505;45.196;5.696;2023-07-20T13:41:51;5.25;;;2.28;;
25649;SDS011;13505;45.196;5.696;2023-07-20T13:46:41;3.58;;;2.35;;
25649;SDS011;13505;45.196;5.696;2023-07-20T13:51:31;4.05;;;2.35;;
25649;SDS011;13505;45.196;5.696;2023-07-20T13:56:22;5.93;;;2.50;;
25649;SDS011;13505;45.196;5.696;2023-07-20T14:01:12;4.65;;;2.65;;
25649;SDS011;13505;45.196;5.696;2023-07-20T14:06:02;5.05;;;2.33;;
25649;SDS011;13505;45.196;5.696;2023-07-20T14:10:53;7.30;;;2.42;;
25649;SDS011;13505;45.196;5.696;2023-07-20T14:15:43;6.65;;;2.30;;
25649;SDS011;13505;45.196;5.696;2023-07-20T14:20:33;3.50;;;2.70;;
25649;SDS011;13505;45.196;5.696;2023-07-20T14:25:23;5.05;;;2.40;;
25649;SDS011;13505;45.196;5.696;2023-07-20T14:30:14;5.23;;;2.80;;
25649;SDS011;13505;45.196;5.696;2023-07-20T14:35:04;4.57;;;2.17;;
25649;SDS011;13505;45.196;5.696;2023-07-20T14:39:56;4.55;;;2.33;;
25649;SDS011;13505;45.196;5.696;2023-07-20T14:44:46;4.25;;;2.05;;
25649;SDS011;13505;45.196;5.696;2023-07-20T14:49:37;4.30;;;2.40;;
25649;SDS011;13505;45.196;5.696;2023-07-20T14:54:27;5.80;;;2.17;;
25649;SDS011;13505;45.196;5.696;2023-07-20T14:59:17;3.77;;;2.17;;
25649;SDS011;13505;45.196;5.696;2023-07-20T15:04:08;5.85;;;2.40;;
25649;SDS011;13505;45.196;5.696;2023-07-20T15:08:59;4.60;;;2.23;;
25649;SDS011;13505;45.196;5.696;2023-07-20T15:13:50;3.80;;;2.40;;
25649;SDS011;13505;45.196;5.696;2023-07-20T15:18:41;5.10;;;2.47;;
25649;SDS011;13505;45.196;5.696;2023-07-20T15:23:31;3.35;;;2.30;;
25649;SDS011;13505;45.196;5.696;2023-07-20T15:28:22;3.83;;;2.27;;
25649;SDS011;13505;45.196;5.696;2023-07-20T15:33:12;2.92;;;2.33;;
25649;SDS011;13505;45.196;5.696;2023-07-20T15:38:02;3.67;;;2.60;;
25649;SDS011;13505;45.196;5.696;2023-07-20T15:42:53;6.15;;;2.45;;
25649;SDS011;13505;45.196;5.696;2023-07-20T15:47:43;4.15;;;2.45;;
25649;SDS011;13505;45.196;5.696;2023-07-20T15:52:34;4.90;;;2.33;;
25649;SDS011;13505;45.196;5.696;2023-07-20T15:57:24;7.43;;;2.40;;
25649;SDS011;13505;45.196;5.696;2023-07-20T16:02:14;8.43;;;2.50;;
25649;SDS011;13505;45.196;5.696;2023-07-20T16:07:05;6.75;;;2.20;;
25649;SDS011;13505;45.196;5.696;2023-07-20T16:11:57;3.58;;;2.53;;
25649;SDS011;13505;45.196;5.696;2023-07-20T16:16:48;6.15;;;2.05;;
25649;SDS011;13505;45.196;5.696;2023-07-20T16:21:38;3.63;;;2.20;;
25649;SDS011;13505;45.196;5.696;2023-07-20T16:26:29;4.03;;;2.03;;
25649;SDS011;13505;45.196;5.696;2023-07-20T16:31:19;5.15;;;2.13;;
25649;SDS011;13505;45.196;5.696;2023-07-20T16:36:10;7.15;;;2.55;;
25649;SDS011;13505;45.196;5.696;2023-07-20T16:41:08;2.60;;;1.98;;
25649;SDS011;13505;45.196;5.696;2023-07-20T16:46:00;7.07;;;2.10;;
25649;SDS011;13505;45.196;5.696;2023-07-20T16:50:51;5.07;;;2.10;;
25649;SDS011;13505;45.196;5.696;2023-07-20T16:55:41;7.28;;;2.20;;
25649;SDS011;13505;45.196;5.696;2023-07-20T17:00:32;7.50;;;2.08;;
25649;SDS011;13505;45.196;5.696;2023-07-20T17:05:22;5.57;;;2.10;;
25649;SDS011;13505;45.196;5.696;2023-07-20T17:10:13;3.20;;;2.00;;
25649;SDS011;13505;45.196;5.696;2023-07-20T17:15:04;3.75;;;1.83;;
25649;SDS011;13505;45.196;5.696;2023-07-20T17:19:54;4.53;;;2.90;;
25649;SDS011;13505;45.196;5.696;2023-07-20T17:24:45;7.60;;;2.20;;
25649;SDS011;13505;45.196;5.696;2023-07-20T17:29:35;8.35;;;2.10;;
25649;SDS011;13505;45.196;5.696;2023-07-20T17:34:25;3.20;;;1.83;;
25649;SDS011;13505;45.196;5.696;2023-07-20T17:39:16;2.80;;;1.97;;
25649;SDS011;13505;45.196;5.696;2023-07-20T17:44:06;6.43;;;2.30;;
25649;SDS011;13505;45.196;5.696;2023-07-20T17:48:57;5.30;;;2.03;;
25649;SDS011;13505;45.196;5.696;2023-07-20T17:53:47;5.33;;;1.97;;
25649;SDS011;13505;45.196;5.696;2023-07-20T17:58:38;2.90;;;1.53;;
25649;SDS011;13505;45.196;5.696;2023-07-20T18:03:28;2.80;;;2.00;;
25649;SDS011;13505;45.196;5.696;2023-07-20T18:08:18;3.33;;;2.27;;
25649;SDS011;13505;45.196;5.696;2023-07-20T18:13:09;4.40;;;2.50;;
25649;SDS011;13505;45.196;5.696;2023-07-20T18:17:59;2.93;;;2.20;;
25649;SDS011;13505;45.196;5.696;2023-07-20T18:22:49;4.50;;;2.60;;
25649;SDS011;13505;45.196;5.696;2023-07-20T18:27:40;7.70;;;1.73;;
25649;SDS011;13505;45.196;5.696;2023-07-20T18:32:30;7.28;;;2.05;;
25649;SDS011;13505;45.196;5.696;2023-07-20T18:37:21;7.30;;;2.00;;
25649;SDS011;13505;45.196;5.696;2023-07-20T18:42:11;5.57;;;2.10;;
25649;SDS011;13505;45.196;5.696;2023-07-20T18:47:01;4.53;;;2.00;;
25649;SDS011;13505;45.196;5.696;2023-07-20T18:51:52;5.00;;;1.80;;
25649;SDS011;13505;45.196;5.696;2023-07-20T18:56:42;3.80;;;2.10;;
25649;SDS011;13505;45.196;5.696;2023-07-20T19:01:32;3.05;;;2.40;;
25649;SDS011;13505;45.196;5.696;2023-07-20T19:06:23;6.13;;;2.25;;
25649;SDS011;13505;45.196;5.696;2023-07-20T19:11:13;5.57;;;2.50;;
25649;SDS011;13505;45.196;5.696;2023-07-20T19:16:04;4.53;;;2.27;;
25649;SDS011;13505;45.196;5.696;2023-07-20T19:20:54;7.95;;;2.13;;
25649;SDS011;13505;45.196;5.696;2023-07-20T19:25:48;4.45;;;2.33;;
25649;SDS011;13505;45.196;5.696;2023-07-20T19:30:39;3.10;;;2.37;;
25649;SDS011;13505;45.196;5.696;2023-07-20T19:35:29;1.83;;;1.43;;
25649;SDS011;13505;45.196;5.696;2023-07-20T19:40:25;2.53;;;1.88;;
25649;SDS011;13505;45.196;5.696;2023-07-20T19:45:15;4.15;;;2.22;;
25649;SDS011;13505;45.196;5.696;2023-07-20T19:50:06;3.28;;;2.33;;
25649;SDS011;13505;45.196;5.696;2023-07-20T19:54:57;5.05;;;2.03;;
25649;SDS011;13505;45.196;5.696;2023-07-20T19:59:48;3.30;;;2.55;;
25649;SDS011;13505;45.196;5.696;2023-07-20T20:04:39;8.40;;;2.63;;
25649;SDS011;13505;45.196;5.696;2023-07-20T20:09:30;6.15;;;2.80;;
25649;SDS011;13505;45.196;5.696;2023-07-20T20:14:20;3.75;;;2.55;;
25649;SDS011;13505;45.196;5.696;2023-07-20T20:19:11;4.50;;;2.38;;
25649;SDS011;13505;45.196;5.696;2023-07-20T20:24:02;5.63;;;2.33;;
25649;SDS011;13505;45.196;5.696;2023-07-20T20:28:52;5.07;;;2.45;;
25649;SDS011;13505;45.196;5.696;2023-07-20T20:33:43;6.60;;;2.08;;
25649;SDS011;13505;45.196;5.696;2023-07-20T20:38:33;5.60;;;2.38;;
25649;SDS011;13505;45.196;5.696;2023-07-20T20:43:24;3.42;;;2.00;;
25649;SDS011;13505;45.196;5.696;2023-07-20T20:48:19;9.95;;;2.45;;
25649;SDS011;13505;45.196;5.696;2023-07-20T20:53:13;5.20;;;2.30;;
25649;SDS011;13505;45.196;5.696;2023-07-20T20:58:04;7.07;;;2.25;;
25649;SDS011;13505;45.196;5.696;2023-07-20T21:02:54;8.20;;;2.20;;
25649;SDS011;13505;45.196;5.696;2023-07-20T21:07:45;5.05;;;2.15;;
25649;SDS011;13505;45.196;5.696;2023-07-20T21:12:36;11.52;;;2.80;;
25649;SDS011;13505;45.196;5.696;2023-07-20T21:17:26;7.65;;;3.78;;
25649;SDS011;13505;45.196;5.696;2023-07-20T21:22:17;7.60;;;3.00;;
25649;SDS011;13505;45.196;5.696;2023-07-20T21:27:08;5.03;;;2.42;;
25649;SDS011;13505;45.196;5.696;2023-07-20T21:31:58;5.80;;;2.50;;
25649;SDS011;13505;45.196;5.696;2023-07-20T21:36:48;7.28;;;3.20;;
25649;SDS011;13505;45.196;5.696;2023-07-20T21:41:39;6.20;;;2.90;;
25649;SDS011;13505;45.196;5.696;2023-07-20T21:46:29;9.48;;;2.90;;
25649;SDS011;13505;45.196;5.696;2023-07-20T21:51:19;9.57;;;2.87;;
25649;SDS011;13505;45.196;5.696;2023-07-20T21:56:10;3.20;;;2.17;;
